sensor_id;sensor_type;location;lat;lon;timestamp;pressure;altitude;pressure_sealevel;temperature;humidity
58092;BME280;43896;48.178;11.578;2022-07-06T00:00:43;96322.59;;;20.76;45.52
58092;BME280;43896;48.178;11.578;2022-07-06T00:03:08;96325.28;;;20.76;45.34
58092;BME280;43896;48.178;11.578;2022-07-06T00:05:33;96326.09;;;20.70;45.98
58092;BME280;43896;48.178;11.578;2022-07-06T00:07:58;96339.03;;;20.79;45.73
58092;BME280;43896;48.178;11.578;2022-07-06T00:10:24;96342.72;;;20.85;45.45
58092;BME280;43896;48.178;11.578;2022-07-06T00:12:49;96325.88;;;20.78;45.54
58092;BME280;43896;48.178;11.578;2022-07-06T00:15:14;96326.28;;;20.75;45.54
58092;BME280;43896;48.178;11.578;2022-07-06T00:17:40;96314.38;;;20.71;46.25
58092;BME280;43896;48.178;11.578;2022-07-06T00:20:05;96320.94;;;20.75;46.50
58092;BME280;43896;48.178;11.578;2022-07-06T00:22:31;96321.56;;;20.77;47.15
58092;BME280;43896;48.178;11.578;2022-07-06T00:24:56;96319.94;;;20.69;46.66
58092;BME280;43896;48.178;11.578;2022-07-06T00:27:21;96317.69;;;20.66;46.95
58092;BME280;43896;48.178;11.578;2022-07-06T00:29:47;96310.91;;;20.57;48.31
58092;BME280;43896;48.178;11.578;2022-07-06T00:32:12;96297.56;;;20.43;48.17
58092;BME280;43896;48.178;11.578;2022-07-06T00:34:38;96319.31;;;20.54;47.74
58092;BME280;43896;48.178;11.578;2022-07-06T00:37:05;96313.38;;;20.58;48.16
58092;BME280;43896;48.178;11.578;2022-07-06T00:39:32;96313.97;;;20.54;47.87
58092;BME280;43896;48.178;11.578;2022-07-06T00:41:57;96326.72;;;20.58;48.39
58092;BME280;43896;48.178;11.578;2022-07-06T00:44:23;96326.53;;;20.60;48.57
58092;BME280;43896;48.178;11.578;2022-07-06T00:46:48;96322.59;;;20.56;48.38
58092;BME280;43896;48.178;11.578;2022-07-06T00:49:13;96323.84;;;20.53;48.67
58092;BME280;43896;48.178;11.578;2022-07-06T00:51:57;96324.28;;;20.50;49.12
58092;BME280;43896;48.178;11.578;2022-07-06T00:54:23;96322.66;;;20.49;49.45
58092;BME280;43896;48.178;11.578;2022-07-06T00:56:48;96325.09;;;20.51;49.36
58092;BME280;43896;48.178;11.578;2022-07-06T00:59:14;96318.72;;;20.52;49.65
58092;BME280;43896;48.178;11.578;2022-07-06T01:01:39;96323.25;;;20.51;49.59
58092;BME280;43896;48.178;11.578;2022-07-06T01:04:05;96301.50;;;20.41;49.88
58092;BME280;43896;48.178;11.578;2022-07-06T01:06:30;96296.34;;;20.39;50.13
58092;BME280;43896;48.178;11.578;2022-07-06T01:08:55;96315.25;;;20.51;50.20
58092;BME280;43896;48.178;11.578;2022-07-06T01:11:20;96316.25;;;20.50;50.18
58092;BME280;43896;48.178;11.578;2022-07-06T01:13:47;96310.72;;;20.52;50.03
58092;BME280;43896;48.178;11.578;2022-07-06T01:16:13;96293.47;;;20.41;50.43
58092;BME280;43896;48.178;11.578;2022-07-06T01:18:38;96297.78;;;20.42;50.78
58092;BME280;43896;48.178;11.578;2022-07-06T01:21:06;96299.03;;;20.39;51.27
58092;BME280;43896;48.178;11.578;2022-07-06T01:23:32;96297.56;;;20.37;51.17
58092;BME280;43896;48.178;11.578;2022-07-06T01:25:57;96290.00;;;20.34;51.37
58092;BME280;43896;48.178;11.578;2022-07-06T01:28:22;96291.84;;;20.27;51.48
58092;BME280;43896;48.178;11.578;2022-07-06T01:30:48;96278.28;;;20.21;51.53
58092;BME280;43896;48.178;11.578;2022-07-06T01:33:13;96288.75;;;20.23;51.75
58092;BME280;43896;48.178;11.578;2022-07-06T01:35:39;96289.81;;;20.22;51.86
58092;BME280;43896;48.178;11.578;2022-07-06T01:38:04;96278.31;;;20.08;51.95
58092;BME280;43896;48.178;11.578;2022-07-06T01:40:30;96288.56;;;20.11;52.10
58092;BME280;43896;48.178;11.578;2022-07-06T01:42:55;96278.94;;;20.03;52.21
58092;BME280;43896;48.178;11.578;2022-07-06T01:45:20;96284.28;;;20.03;52.39
58092;BME280;43896;48.178;11.578;2022-07-06T01:47:46;96293.09;;;19.97;52.69
58092;BME280;43896;48.178;11.578;2022-07-06T01:50:11;96280.41;;;19.93;52.21
58092;BME280;43896;48.178;11.578;2022-07-06T01:52:36;96294.53;;;19.86;52.62
58092;BME280;43896;48.178;11.578;2022-07-06T01:55:02;96293.53;;;19.88;52.29
58092;BME280;43896;48.178;11.578;2022-07-06T01:57:28;96280.59;;;19.84;52.32
58092;BME280;43896;48.178;11.578;2022-07-06T01:59:53;96293.53;;;19.88;52.41
58092;BME280;43896;48.178;11.578;2022-07-06T02:02:18;96297.63;;;19.90;52.60
58092;BME280;43896;48.178;11.578;2022-07-06T02:04:44;96296.00;;;19.82;53.01
58092;BME280;43896;48.178;11.578;2022-07-06T02:07:09;96299.28;;;19.84;52.64
58092;BME280;43896;48.178;11.578;2022-07-06T02:09:34;96292.69;;;19.74;52.83
58092;BME280;43896;48.178;11.578;2022-07-06T02:12:00;96287.78;;;19.77;52.30
58092;BME280;43896;48.178;11.578;2022-07-06T02:14:25;96295.59;;;19.79;52.51
58092;BME280;43896;48.178;11.578;2022-07-06T02:16:50;96290.84;;;19.74;52.57
58092;BME280;43896;48.178;11.578;2022-07-06T02:19:16;96291.03;;;19.73;52.42
58092;BME280;43896;48.178;11.578;2022-07-06T02:21:41;96303.16;;;19.75;52.45
58092;BME280;43896;48.178;11.578;2022-07-06T02:24:06;96297.59;;;19.70;52.47
58092;BME280;43896;48.178;11.578;2022-07-06T02:26:31;96317.94;;;19.78;52.46
58092;BME280;43896;48.178;11.578;2022-07-06T02:28:57;96305.38;;;19.72;52.60
58092;BME280;43896;48.178;11.578;2022-07-06T02:31:22;96310.53;;;19.73;53.12
58092;BME280;43896;48.178;11.578;2022-07-06T02:33:47;96308.28;;;19.70;52.62
58092;BME280;43896;48.178;11.578;2022-07-06T02:36:13;96306.63;;;19.62;52.91
58092;BME280;43896;48.178;11.578;2022-07-06T02:38:38;96322.84;;;19.67;52.53
58092;BME280;43896;48.178;11.578;2022-07-06T02:41:03;96320.78;;;19.70;52.60
58092;BME280;43896;48.178;11.578;2022-07-06T02:43:29;96316.47;;;19.55;53.11
58092;BME280;43896;48.178;11.578;2022-07-06T02:45:54;96315.88;;;19.60;52.92
58092;BME280;43896;48.178;11.578;2022-07-06T02:48:19;96319.34;;;19.60;53.04
58092;BME280;43896;48.178;11.578;2022-07-06T02:50:46;96312.34;;;19.53;53.45
58092;BME280;43896;48.178;11.578;2022-07-06T02:53:12;96319.94;;;19.56;53.24
58092;BME280;43896;48.178;11.578;2022-07-06T02:55:37;96311.09;;;19.48;53.68
58092;BME280;43896;48.178;11.578;2022-07-06T02:58:02;96324.84;;;19.45;53.97
58092;BME280;43896;48.178;11.578;2022-07-06T03:00:27;96319.72;;;19.44;53.46
58092;BME280;43896;48.178;11.578;2022-07-06T03:02:53;96311.06;;;19.35;53.76
58092;BME280;43896;48.178;11.578;2022-07-06T03:05:18;96312.28;;;19.26;54.52
58092;BME280;43896;48.178;11.578;2022-07-06T03:07:43;96322.16;;;19.25;54.74
58092;BME280;43896;48.178;11.578;2022-07-06T03:10:09;96333.66;;;19.33;54.36
58092;BME280;43896;48.178;11.578;2022-07-06T03:12:34;96327.69;;;19.24;54.33
58092;BME280;43896;48.178;11.578;2022-07-06T03:14:59;96331.56;;;19.28;54.28
58092;BME280;43896;48.178;11.578;2022-07-06T03:17:25;96331.56;;;19.28;54.59
58092;BME280;43896;48.178;11.578;2022-07-06T03:19:50;96335.69;;;19.24;54.52
58092;BME280;43896;48.178;11.578;2022-07-06T03:22:15;96335.25;;;19.27;54.64
58092;BME280;43896;48.178;11.578;2022-07-06T03:24:41;96337.72;;;19.28;54.81
58092;BME280;43896;48.178;11.578;2022-07-06T03:27:06;96341.63;;;19.26;55.00
58092;BME280;43896;48.178;11.578;2022-07-06T03:29:31;96327.63;;;19.10;55.51
58092;BME280;43896;48.178;11.578;2022-07-06T03:31:57;96333.19;;;19.16;55.32
58092;BME280;43896;48.178;11.578;2022-07-06T03:34:22;96321.25;;;19.11;55.85
58092;BME280;43896;48.178;11.578;2022-07-06T03:36:47;96337.47;;;19.17;56.38
58092;BME280;43896;48.178;11.578;2022-07-06T03:39:12;96335.66;;;19.17;55.89
58092;BME280;43896;48.178;11.578;2022-07-06T03:41:38;96323.13;;;19.18;56.12
58092;BME280;43896;48.178;11.578;2022-07-06T03:44:04;96332.38;;;19.22;55.82
58092;BME280;43896;48.178;11.578;2022-07-06T03:46:29;96315.53;;;19.15;56.09
58092;BME280;43896;48.178;11.578;2022-07-06T03:48:54;96330.31;;;19.17;56.36
58092;BME280;43896;48.178;11.578;2022-07-06T03:51:20;96314.50;;;19.09;56.50
58092;BME280;43896;48.178;11.578;2022-07-06T03:53:45;96329.47;;;19.17;56.71
58092;BME280;43896;48.178;11.578;2022-07-06T03:56:11;96319.63;;;19.10;57.00
58092;BME280;43896;48.178;11.578;2022-07-06T03:58:59;96290.00;;;18.85;56.92
58092;BME280;43896;48.178;11.578;2022-07-06T04:01:24;96324.53;;;19.07;57.41
58092;BME280;43896;48.178;11.578;2022-07-06T04:03:50;96333.94;;;19.03;57.69
58092;BME280;43896;48.178;11.578;2022-07-06T04:06:15;96328.19;;;18.99;57.66
58092;BME280;43896;48.178;11.578;2022-07-06T04:08:41;96331.47;;;19.01;57.94
58092;BME280;43896;48.178;11.578;2022-07-06T04:11:06;96339.06;;;19.04;57.72
58092;BME280;43896;48.178;11.578;2022-07-06T04:13:31;96330.03;;;18.99;57.45
58092;BME280;43896;48.178;11.578;2022-07-06T04:15:57;96344.84;;;19.08;57.63
58092;BME280;43896;48.178;11.578;2022-07-06T04:18:23;96330.69;;;19.07;57.27
58092;BME280;43896;48.178;11.578;2022-07-06T04:20:48;96345.06;;;19.13;57.48
58092;BME280;43896;48.178;11.578;2022-07-06T04:23:13;96344.69;;;19.23;57.39
58092;BME280;43896;48.178;11.578;2022-07-06T04:25:39;96345.31;;;19.25;57.34
58092;BME280;43896;48.178;11.578;2022-07-06T04:28:04;96349.00;;;19.30;57.10
58092;BME280;43896;48.178;11.578;2022-07-06T04:30:29;96335.06;;;19.28;56.69
58092;BME280;43896;48.178;11.578;2022-07-06T04:32:55;96337.13;;;19.33;56.86
58092;BME280;43896;48.178;11.578;2022-07-06T04:35:21;96356.63;;;19.40;56.55
58092;BME280;43896;48.178;11.578;2022-07-06T04:37:46;96352.75;;;19.43;56.33
58092;BME280;43896;48.178;11.578;2022-07-06T04:40:13;96351.31;;;19.47;56.62
58092;BME280;43896;48.178;11.578;2022-07-06T04:42:38;96342.72;;;19.45;56.77
58092;BME280;43896;48.178;11.578;2022-07-06T04:45:04;96343.13;;;19.55;56.64
58092;BME280;43896;48.178;11.578;2022-07-06T04:47:30;96335.31;;;19.47;56.76
58092;BME280;43896;48.178;11.578;2022-07-06T04:49:56;96349.88;;;19.51;57.10
58092;BME280;43896;48.178;11.578;2022-07-06T04:52:21;96341.28;;;19.49;56.95
58092;BME280;43896;48.178;11.578;2022-07-06T04:54:46;96350.94;;;19.57;57.02
58092;BME280;43896;48.178;11.578;2022-07-06T04:57:12;96336.53;;;19.51;56.97
58092;BME280;43896;48.178;11.578;2022-07-06T04:59:37;96348.28;;;19.63;57.06
58092;BME280;43896;48.178;11.578;2022-07-06T05:02:02;96332.28;;;19.57;57.10
58092;BME280;43896;48.178;11.578;2022-07-06T05:04:28;96345.63;;;19.63;57.18
58092;BME280;43896;48.178;11.578;2022-07-06T05:06:53;96346.63;;;19.62;56.79
58092;BME280;43896;48.178;11.578;2022-07-06T05:09:18;96354.06;;;19.80;58.50
58092;BME280;43896;48.178;11.578;2022-07-06T05:11:44;96345.19;;;19.66;58.98
58092;BME280;43896;48.178;11.578;2022-07-06T05:14:10;96339.31;;;19.84;57.56
58092;BME280;43896;48.178;11.578;2022-07-06T05:16:35;96360.25;;;20.01;58.30
58092;BME280;43896;48.178;11.578;2022-07-06T05:19:00;96351.81;;;19.91;57.33
58092;BME280;43896;48.178;11.578;2022-07-06T05:21:26;96347.34;;;19.91;57.71
58092;BME280;43896;48.178;11.578;2022-07-06T05:23:51;96357.19;;;20.11;57.12
58092;BME280;43896;48.178;11.578;2022-07-06T05:26:16;96358.00;;;20.11;57.63
58092;BME280;43896;48.178;11.578;2022-07-06T05:28:42;96363.34;;;20.31;57.86
58092;BME280;43896;48.178;11.578;2022-07-06T05:31:07;96366.41;;;20.28;55.50
58092;BME280;43896;48.178;11.578;2022-07-06T05:33:33;96362.13;;;20.34;55.74
58092;BME280;43896;48.178;11.578;2022-07-06T05:35:58;96364.75;;;20.40;55.52
58092;BME280;43896;48.178;11.578;2022-07-06T05:38:24;96370.09;;;20.47;55.08
58092;BME280;43896;48.178;11.578;2022-07-06T05:40:49;96370.34;;;20.39;54.33
58092;BME280;43896;48.178;11.578;2022-07-06T05:43:14;96375.25;;;20.35;54.69
58092;BME280;43896;48.178;11.578;2022-07-06T05:45:41;96370.94;;;20.48;54.06
58092;BME280;43896;48.178;11.578;2022-07-06T05:48:06;96373.81;;;20.39;53.54
58092;BME280;43896;48.178;11.578;2022-07-06T05:50:50;96365.00;;;20.32;54.30
58092;BME280;43896;48.178;11.578;2022-07-06T05:53:15;96338.28;;;20.12;53.86
58092;BME280;43896;48.178;11.578;2022-07-06T05:55:41;96379.16;;;20.59;54.89
58092;BME280;43896;48.178;11.578;2022-07-06T05:58:06;96367.03;;;20.64;52.74
58092;BME280;43896;48.178;11.578;2022-07-06T06:00:31;96382.19;;;20.83;53.88
58092;BME280;43896;48.178;11.578;2022-07-06T06:02:58;96385.69;;;20.90;52.51
58092;BME280;43896;48.178;11.578;2022-07-06T06:05:23;96379.72;;;20.88;53.68
58092;BME280;43896;48.178;11.578;2022-07-06T06:07:49;96382.16;;;20.96;54.48
58092;BME280;43896;48.178;11.578;2022-07-06T06:10:16;96360.97;;;21.02;52.14
58092;BME280;43896;48.178;11.578;2022-07-06T06:12:42;96375.53;;;21.12;52.76
58092;BME280;43896;48.178;11.578;2022-07-06T06:15:08;96388.66;;;21.27;52.89
58092;BME280;43896;48.178;11.578;2022-07-06T06:17:35;96389.84;;;21.31;50.94
58092;BME280;43896;48.178;11.578;2022-07-06T06:20:01;96393.19;;;21.27;51.71
58092;BME280;43896;48.178;11.578;2022-07-06T06:22:27;96394.00;;;21.27;51.00
58092;BME280;43896;48.178;11.578;2022-07-06T06:24:52;96393.81;;;21.22;50.82
58092;BME280;43896;48.178;11.578;2022-07-06T06:27:18;96396.94;;;21.06;51.13
58092;BME280;43896;48.178;11.578;2022-07-06T06:29:43;96391.84;;;21.04;51.52
58092;BME280;43896;48.178;11.578;2022-07-06T06:32:13;96389.09;;;21.17;51.60
58092;BME280;43896;48.178;11.578;2022-07-06T06:34:39;96394.63;;;21.23;51.73
58092;BME280;43896;48.178;11.578;2022-07-06T06:37:05;96383.28;;;21.34;51.00
58092;BME280;43896;48.178;11.578;2022-07-06T06:39:30;96385.09;;;21.40;48.98
58092;BME280;43896;48.178;11.578;2022-07-06T06:41:56;96397.44;;;21.48;50.83
58092;BME280;43896;48.178;11.578;2022-07-06T06:44:21;96393.91;;;21.54;51.00
58092;BME280;43896;48.178;11.578;2022-07-06T06:46:50;96393.03;;;21.67;49.61
58092;BME280;43896;48.178;11.578;2022-07-06T06:49:17;96398.16;;;21.68;49.86
58092;BME280;43896;48.178;11.578;2022-07-06T06:51:42;96392.81;;;21.68;50.19
58092;BME280;43896;48.178;11.578;2022-07-06T06:54:07;96392.38;;;21.71;49.18
58092;BME280;43896;48.178;11.578;2022-07-06T06:56:33;96398.16;;;21.68;49.47
58092;BME280;43896;48.178;11.578;2022-07-06T06:58:58;96395.63;;;21.80;49.33
58092;BME280;43896;48.178;11.578;2022-07-06T07:01:24;96389.59;;;21.85;49.15
58092;BME280;43896;48.178;11.578;2022-07-06T07:03:50;96374.53;;;21.59;49.20
58092;BME280;43896;48.178;11.578;2022-07-06T07:06:16;96401.19;;;21.79;48.93
58092;BME280;43896;48.178;11.578;2022-07-06T07:08:41;96387.38;;;21.82;48.35
58092;BME280;43896;48.178;11.578;2022-07-06T07:11:07;96395.78;;;21.92;47.97
58092;BME280;43896;48.178;11.578;2022-07-06T07:13:32;96369.50;;;21.76;48.57
58092;BME280;43896;48.178;11.578;2022-07-06T07:15:57;96396.75;;;21.98;49.19
58092;BME280;43896;48.178;11.578;2022-07-06T07:18:23;96394.84;;;22.05;48.36
58092;BME280;43896;48.178;11.578;2022-07-06T07:20:48;96386.97;;;22.10;47.63
58092;BME280;43896;48.178;11.578;2022-07-06T07:23:13;96400.31;;;22.17;47.60
58092;BME280;43896;48.178;11.578;2022-07-06T07:25:39;96379.44;;;22.25;47.13
58092;BME280;43896;48.178;11.578;2022-07-06T07:28:05;96387.56;;;22.44;46.71
58092;BME280;43896;48.178;11.578;2022-07-06T07:30:30;96386.34;;;22.40;43.42
58092;BME280;43896;48.178;11.578;2022-07-06T07:32:55;96365.38;;;22.37;45.66
58092;BME280;43896;48.178;11.578;2022-07-06T07:35:21;96389.13;;;22.52;46.07
58092;BME280;43896;48.178;11.578;2022-07-06T07:37:47;96378.41;;;22.52;44.50
58092;BME280;43896;48.178;11.578;2022-07-06T07:40:12;96393.13;;;22.68;44.98
58092;BME280;43896;48.178;11.578;2022-07-06T07:42:37;96390.38;;;22.74;45.60
58092;BME280;43896;48.178;11.578;2022-07-06T07:45:06;96396.34;;;22.76;45.05
58092;BME280;43896;48.178;11.578;2022-07-06T07:47:32;96381.56;;;22.67;44.22
58092;BME280;43896;48.178;11.578;2022-07-06T07:49:57;96378.44;;;22.70;43.87
58092;BME280;43896;48.178;11.578;2022-07-06T07:52:22;96394.41;;;22.83;42.92
58092;BME280;43896;48.178;11.578;2022-07-06T07:54:47;96398.06;;;22.89;44.26
58092;BME280;43896;48.178;11.578;2022-07-06T07:57:13;96387.69;;;22.74;44.14
58092;BME280;43896;48.178;11.578;2022-07-06T07:59:38;96398.38;;;22.99;44.43
58092;BME280;43896;48.178;11.578;2022-07-06T08:02:03;96385.97;;;22.98;44.65
58092;BME280;43896;48.178;11.578;2022-07-06T08:04:29;96389.28;;;23.19;43.87
58092;BME280;43896;48.178;11.578;2022-07-06T08:06:54;96389.16;;;23.32;43.94
58092;BME280;43896;48.178;11.578;2022-07-06T08:09:19;96388.47;;;23.37;43.87
58092;BME280;43896;48.178;11.578;2022-07-06T08:11:45;96389.41;;;23.61;43.90
58092;BME280;43896;48.178;11.578;2022-07-06T08:14:10;96388.38;;;23.74;42.87
58092;BME280;43896;48.178;11.578;2022-07-06T08:16:36;96380.81;;;23.71;41.43
58092;BME280;43896;48.178;11.578;2022-07-06T08:19:01;96391.44;;;23.77;42.85
58092;BME280;43896;48.178;11.578;2022-07-06T08:21:27;96390.91;;;23.57;43.55
58092;BME280;43896;48.178;11.578;2022-07-06T08:23:54;96397.72;;;23.71;44.26
58092;BME280;43896;48.178;11.578;2022-07-06T08:26:19;96406.75;;;23.77;43.74
58092;BME280;43896;48.178;11.578;2022-07-06T08:28:45;96394.06;;;23.84;43.26
58092;BME280;43896;48.178;11.578;2022-07-06T08:31:10;96395.66;;;24.04;42.50
58092;BME280;43896;48.178;11.578;2022-07-06T08:33:35;96391.84;;;23.81;42.89
58092;BME280;43896;48.178;11.578;2022-07-06T08:36:01;96392.25;;;24.08;43.28
58092;BME280;43896;48.178;11.578;2022-07-06T08:38:26;96392.25;;;24.08;43.58
58092;BME280;43896;48.178;11.578;2022-07-06T08:40:52;96387.75;;;24.21;42.90
58092;BME280;43896;48.178;11.578;2022-07-06T08:43:18;96396.88;;;24.31;40.99
58092;BME280;43896;48.178;11.578;2022-07-06T08:45:44;96388.09;;;24.24;41.56
58092;BME280;43896;48.178;11.578;2022-07-06T08:48:12;96398.03;;;24.24;43.08
58092;BME280;43896;48.178;11.578;2022-07-06T08:50:37;96401.44;;;24.43;42.94
58092;BME280;43896;48.178;11.578;2022-07-06T08:53:06;96397.75;;;24.13;42.78
58092;BME280;43896;48.178;11.578;2022-07-06T08:55:32;96403.09;;;24.44;43.16
58092;BME280;43896;48.178;11.578;2022-07-06T08:57:58;96401.56;;;24.24;41.25
58092;BME280;43896;48.178;11.578;2022-07-06T09:00:24;96402.38;;;24.37;41.81
58092;BME280;43896;48.178;11.578;2022-07-06T09:02:50;96396.94;;;24.55;41.79
58092;BME280;43896;48.178;11.578;2022-07-06T09:05:17;96404.19;;;24.78;40.02
58092;BME280;43896;48.178;11.578;2022-07-06T09:07:42;96404.06;;;24.97;41.66
58092;BME280;43896;48.178;11.578;2022-07-06T09:10:11;96398.16;;;25.12;41.16
58092;BME280;43896;48.178;11.578;2022-07-06T09:12:36;96421.94;;;25.26;40.52
58092;BME280;43896;48.178;11.578;2022-07-06T09:15:02;96413.28;;;24.89;40.20
58092;BME280;43896;48.178;11.578;2022-07-06T09:17:28;96418.19;;;25.16;39.62
58092;BME280;43896;48.178;11.578;2022-07-06T09:19:54;96413.13;;;25.43;39.90
58092;BME280;43896;48.178;11.578;2022-07-06T09:22:31;96425.41;;;25.51;37.88
58092;BME280;43896;48.178;11.578;2022-07-06T09:25:09;96410.81;;;25.11;37.60
58092;BME280;43896;48.178;11.578;2022-07-06T09:27:45;96421.59;;;25.11;37.97
58092;BME280;43896;48.178;11.578;2022-07-06T09:30:16;96419.13;;;25.09;39.33
58092;BME280;43896;48.178;11.578;2022-07-06T09:32:48;96424.41;;;24.93;40.64
58092;BME280;43896;48.178;11.578;2022-07-06T09:35:36;96415.84;;;25.07;40.30
58092;BME280;43896;48.178;11.578;2022-07-06T09:38:10;96415.00;;;25.42;38.80
58092;BME280;43896;48.178;11.578;2022-07-06T09:40:38;96420.41;;;25.71;38.10
58092;BME280;43896;48.178;11.578;2022-07-06T09:43:14;96428.94;;;25.80;37.17
58092;BME280;43896;48.178;11.578;2022-07-06T09:45:42;96427.25;;;25.91;37.83
58092;BME280;43896;48.178;11.578;2022-07-06T09:48:13;96400.13;;;25.80;36.21
58092;BME280;43896;48.178;11.578;2022-07-06T09:50:43;96420.44;;;26.00;38.23
58092;BME280;43896;48.178;11.578;2022-07-06T09:53:10;96411.06;;;26.19;36.75
58092;BME280;43896;48.178;11.578;2022-07-06T09:55:35;96416.16;;;26.33;37.52
58092;BME280;43896;48.178;11.578;2022-07-06T09:58:01;96426.88;;;26.45;35.85
58092;BME280;43896;48.178;11.578;2022-07-06T10:00:27;96411.81;;;26.49;37.43
58092;BME280;43896;48.178;11.578;2022-07-06T10:02:54;96423.22;;;26.68;36.49
58092;BME280;43896;48.178;11.578;2022-07-06T10:05:21;96416.34;;;26.77;33.02
58092;BME280;43896;48.178;11.578;2022-07-06T10:07:52;96414.22;;;26.79;35.13
58092;BME280;43896;48.178;11.578;2022-07-06T10:10:21;96421.22;;;26.80;34.24
58092;BME280;43896;48.178;11.578;2022-07-06T10:12:47;96422.84;;;26.98;33.55
58092;BME280;43896;48.178;11.578;2022-07-06T10:15:16;96416.25;;;26.38;34.41
58092;BME280;43896;48.178;11.578;2022-07-06T10:17:42;96419.09;;;26.48;35.14
58092;BME280;43896;48.178;11.578;2022-07-06T10:20:08;96415.75;;;26.24;36.43
58092;BME280;43896;48.178;11.578;2022-07-06T10:22:34;96413.16;;;26.00;37.10
58092;BME280;43896;48.178;11.578;2022-07-06T10:25:02;96417.06;;;26.38;36.74
58092;BME280;43896;48.178;11.578;2022-07-06T10:27:28;96408.28;;;26.14;36.75
58092;BME280;43896;48.178;11.578;2022-07-06T10:29:53;96422.06;;;25.72;36.49
58092;BME280;43896;48.178;11.578;2022-07-06T10:32:19;96395.41;;;25.59;39.02
58092;BME280;43896;48.178;11.578;2022-07-06T10:34:46;96411.19;;;25.96;37.31
58092;BME280;43896;48.178;11.578;2022-07-06T10:37:23;96410.34;;;26.24;33.10
58092;BME280;43896;48.178;11.578;2022-07-06T10:39:51;96403.31;;;26.40;35.24
58092;BME280;43896;48.178;11.578;2022-07-06T10:42:46;96412.06;;;26.47;32.21
58092;BME280;43896;48.178;11.578;2022-07-06T10:50:46;96406.84;;;26.91;33.82
58092;BME280;43896;48.178;11.578;2022-07-06T10:53:16;96400.81;;;26.84;33.41
58092;BME280;43896;48.178;11.578;2022-07-06T10:55:45;96401.13;;;26.54;34.92
58092;BME280;43896;48.178;11.578;2022-07-06T10:58:12;96394.91;;;26.87;34.10
58092;BME280;43896;48.178;11.578;2022-07-06T11:00:52;96386.06;;;26.92;35.07
58092;BME280;43896;48.178;11.578;2022-07-06T11:06:10;96402.38;;;27.02;34.36
58092;BME280;43896;48.178;11.578;2022-07-06T11:08:59;96409.47;;;26.86;34.43
58092;BME280;43896;48.178;11.578;2022-07-06T11:16:33;96396.06;;;27.30;33.67
58092;BME280;43896;48.178;11.578;2022-07-06T11:24:25;96396.19;;;27.41;30.99
58092;BME280;43896;48.178;11.578;2022-07-06T11:26:52;96405.91;;;27.42;32.14
58092;BME280;43896;48.178;11.578;2022-07-06T11:29:20;96383.03;;;27.49;32.35
58092;BME280;43896;48.178;11.578;2022-07-06T11:31:51;96399.72;;;26.85;34.47
58092;BME280;43896;48.178;11.578;2022-07-06T11:34:21;96402.91;;;26.14;34.89
58092;BME280;43896;48.178;11.578;2022-07-06T11:36:47;96401.69;;;25.64;36.43
58092;BME280;43896;48.178;11.578;2022-07-06T11:39:13;96379.81;;;25.61;35.10
58092;BME280;43896;48.178;11.578;2022-07-06T11:41:39;96391.47;;;26.07;35.63
58092;BME280;43896;48.178;11.578;2022-07-06T11:44:05;96394.84;;;26.48;35.61
58092;BME280;43896;48.178;11.578;2022-07-06T11:46:34;96385.09;;;26.81;33.39
58092;BME280;43896;48.178;11.578;2022-07-06T11:49:04;96380.53;;;27.04;33.28
58092;BME280;43896;48.178;11.578;2022-07-06T11:51:33;96382.47;;;27.25;33.33
58092;BME280;43896;48.178;11.578;2022-07-06T11:54:01;96374.25;;;27.59;32.51
58092;BME280;43896;48.178;11.578;2022-07-06T11:56:28;96373.66;;;27.57;31.80
58092;BME280;43896;48.178;11.578;2022-07-06T11:58:55;96381.44;;;27.76;31.72
58092;BME280;43896;48.178;11.578;2022-07-06T12:01:22;96369.84;;;27.53;31.68
58092;BME280;43896;48.178;11.578;2022-07-06T12:03:49;96372.00;;;27.51;32.11
58092;BME280;43896;48.178;11.578;2022-07-06T12:06:25;96377.72;;;26.93;32.91
58092;BME280;43896;48.178;11.578;2022-07-06T12:08:53;96358.72;;;26.49;31.86
58092;BME280;43896;48.178;11.578;2022-07-06T12:11:26;96357.25;;;25.79;34.85
58092;BME280;43896;48.178;11.578;2022-07-06T12:13:53;96362.31;;;26.55;34.61
58092;BME280;43896;48.178;11.578;2022-07-06T12:16:19;96360.22;;;26.96;33.51
58092;BME280;43896;48.178;11.578;2022-07-06T12:18:47;96352.88;;;27.13;34.42
58092;BME280;43896;48.178;11.578;2022-07-06T12:21:14;96357.16;;;27.54;31.93
58092;BME280;43896;48.178;11.578;2022-07-06T12:23:45;96350.19;;;26.57;32.39
58092;BME280;43896;48.178;11.578;2022-07-06T12:26:12;96345.38;;;26.60;34.26
58092;BME280;43896;48.178;11.578;2022-07-06T12:28:38;96338.84;;;26.72;33.30
58092;BME280;43896;48.178;11.578;2022-07-06T12:31:03;96359.19;;;27.02;33.52
58092;BME280;43896;48.178;11.578;2022-07-06T12:33:29;96346.78;;;27.45;33.00
58092;BME280;43896;48.178;11.578;2022-07-06T12:35:55;96343.31;;;26.84;33.05
58092;BME280;43896;48.178;11.578;2022-07-06T12:38:25;96334.19;;;26.68;33.23
58092;BME280;43896;48.178;11.578;2022-07-06T12:40:51;96321.78;;;26.33;33.21
58092;BME280;43896;48.178;11.578;2022-07-06T12:43:43;96346.28;;;26.48;32.30
58092;BME280;43896;48.178;11.578;2022-07-06T12:46:46;96339.25;;;26.47;34.01
58092;BME280;43896;48.178;11.578;2022-07-06T12:49:22;96340.88;;;26.48;34.73
58092;BME280;43896;48.178;11.578;2022-07-06T12:54:20;96335.47;;;26.82;34.28
58092;BME280;43896;48.178;11.578;2022-07-06T12:57:06;96327.00;;;26.56;33.34
58092;BME280;43896;48.178;11.578;2022-07-06T12:59:34;96328.41;;;26.08;32.41
58092;BME280;43896;48.178;11.578;2022-07-06T13:02:00;96332.94;;;26.58;33.19
58092;BME280;43896;48.178;11.578;2022-07-06T13:04:27;96329.88;;;26.67;33.32
58092;BME280;43896;48.178;11.578;2022-07-06T13:06:53;96322.25;;;27.03;33.28
58092;BME280;43896;48.178;11.578;2022-07-06T13:09:19;96309.66;;;26.91;33.45